Time;durP1;ratioP1;P1;durP2;ratioP2;P2;SDS_P1;SDS_P2;PMS_P1;PMS_P2;Temp;Humidity;BMP_temperature;BMP_pressure;BME280_temperature;BME280_humidity;BME280_pressure;Samples;Min_cycle;Max_cycle;Signal;HPM_P1;HPM_P2
2022/04/02 00:00:47;;;;;;;4.78;2.55;;;;;;;;;;5097122;28;20144;-77
2022/04/02 00:03:13;;;;;;;6.22;2.63;;;;;;;;;;5092934;28;20056;-78
2022/04/02 00:05:39;;;;;;;3.30;2.00;;;;;;;;;;5107421;27;20055;-78
2022/04/02 00:08:05;;;;;;;4.03;2.70;;;;;;;;;;5082202;28;20107;-82
2022/04/02 00:10:31;;;;;;;4.32;2.47;;;;;;;;;;5092255;28;20047;-78
2022/04/02 00:12:57;;;;;;;4.38;2.50;;;;;;;;;;5076598;28;20055;-78
2022/04/02 00:15:24;;;;;;;4.07;2.70;;;;;;;;;;5100888;28;20391;-80
2022/04/02 00:17:50;;;;;;;4.00;2.45;;;;;;;;;;5113492;27;20076;-80
2022/04/02 00:20:17;;;;;;;6.50;2.78;;;;;;;;;;5081078;28;20044;-78
2022/04/02 00:23:35;;;;;;;7.38;2.25;;;;;;;;;;5068213;28;20040;-76
2022/04/02 00:25:30;;;;;;;7.10;2.55;;;;;;;;;;5088319;28;20060;-78
2022/04/02 00:27:56;;;;;;;5.15;2.60;;;;;;;;;;5073553;28;20056;-81
2022/04/02 00:30:22;;;;;;;5.57;2.50;;;;;;;;;;5091756;28;20040;-77
2022/04/02 00:32:48;;;;;;;7.60;3.08;;;;;;;;;;5084756;28;20553;-78
2022/04/02 00:35:14;;;;;;;5.10;2.67;;;;;;;;;;5072535;28;20402;-77
2022/04/02 00:37:40;;;;;;;6.63;3.17;;;;;;;;;;5082320;28;20098;-79
2022/04/02 00:40:07;;;;;;;7.15;3.00;;;;;;;;;;5082448;28;20051;-79
2022/04/02 00:42:33;;;;;;;4.32;2.90;;;;;;;;;;5111505;27;20192;-80
2022/04/02 00:44:59;;;;;;;7.88;3.47;;;;;;;;;;5084147;28;20083;-77
2022/04/02 00:47:25;;;;;;;6.97;3.33;;;;;;;;;;5083509;28;20135;-80
2022/04/02 00:49:53;;;;;;;7.45;2.97;;;;;;;;;;5063635;28;20075;-78
2022/04/02 00:52:19;;;;;;;8.65;2.85;;;;;;;;;;5061623;28;20138;-80
2022/04/02 00:54:46;;;;;;;4.10;3.00;;;;;;;;;;5078081;28;20080;-78
2022/04/02 00:57:13;;;;;;;5.18;2.80;;;;;;;;;;5062340;28;20048;-77
2022/04/02 00:59:39;;;;;;;7.07;2.72;;;;;;;;;;5079282;28;20123;-78
2022/04/02 01:02:05;;;;;;;4.55;3.03;;;;;;;;;;5064360;28;20055;-77
2022/04/02 01:04:31;;;;;;;11.02;2.88;;;;;;;;;;5079274;28;20060;-78
2022/04/02 01:06:59;;;;;;;5.90;3.03;;;;;;;;;;5064278;28;20076;-78
2022/04/02 01:09:25;;;;;;;4.43;2.97;;;;;;;;;;5065892;28;20082;-80
2022/04/02 01:11:52;;;;;;;6.70;3.03;;;;;;;;;;5080826;28;20048;-78
2022/04/02 01:14:19;;;;;;;4.18;2.50;;;;;;;;;;5080938;28;20546;-77
2022/04/02 01:16:45;;;;;;;6.07;3.00;;;;;;;;;;5064760;28;20063;-77
2022/04/02 01:19:11;;;;;;;5.10;3.10;;;;;;;;;;5096413;27;20093;-80
2022/04/02 01:21:38;;;;;;;5.93;3.30;;;;;;;;;;5068162;28;20072;-78
2022/04/02 01:24:05;;;;;;;8.05;3.50;;;;;;;;;;5081089;28;20044;-78
2022/04/02 01:26:31;;;;;;;6.40;3.65;;;;;;;;;;5080753;28;20056;-78
2022/04/02 01:28:58;;;;;;;8.10;4.10;;;;;;;;;;5065757;28;20036;-78
2022/04/02 01:31:25;;;;;;;5.50;3.00;;;;;;;;;;5081527;28;20036;-78
2022/04/02 01:33:52;;;;;;;8.02;3.38;;;;;;;;;;5068228;28;20094;-77
2022/04/02 01:36:18;;;;;;;7.05;3.20;;;;;;;;;;5106218;27;20052;-78
2022/04/02 01:38:45;;;;;;;4.57;3.25;;;;;;;;;;5074660;28;20478;-78
2022/04/02 01:41:11;;;;;;;7.30;3.75;;;;;;;;;;5081273;28;20054;-80
2022/04/02 01:43:37;;;;;;;8.57;4.00;;;;;;;;;;5063964;28;20058;-78
2022/04/02 01:46:04;;;;;;;4.80;3.20;;;;;;;;;;5078571;28;20062;-78
2022/04/02 01:48:30;;;;;;;5.78;3.45;;;;;;;;;;5079437;28;20048;-78
2022/04/02 01:50:56;;;;;;;7.25;3.08;;;;;;;;;;5081429;28;21743;-78
2022/04/02 01:53:23;;;;;;;6.43;3.30;;;;;;;;;;5067320;28;20102;-78
2022/04/02 01:55:50;;;;;;;5.10;3.17;;;;;;;;;;5066503;28;20040;-79
2022/04/02 01:58:16;;;;;;;6.78;3.20;;;;;;;;;;5060999;28;20132;-79
2022/04/02 02:00:42;;;;;;;6.35;3.15;;;;;;;;;;5065623;28;20509;-77
2022/04/02 02:03:09;;;;;;;5.03;3.42;;;;;;;;;;5081470;28;20086;-77
2022/04/02 02:05:35;;;;;;;8.50;3.50;;;;;;;;;;5079839;28;20047;-78
2022/04/02 02:08:02;;;;;;;5.20;3.03;;;;;;;;;;5085241;28;20040;-78
2022/04/02 02:10:28;;;;;;;5.20;2.97;;;;;;;;;;5086861;28;20040;-79
2022/04/02 02:12:54;;;;;;;5.95;3.50;;;;;;;;;;5098630;28;20043;-77
2022/04/02 02:15:21;;;;;;;4.95;3.33;;;;;;;;;;5082171;28;20444;-78
2022/04/02 02:17:48;;;;;;;7.47;3.22;;;;;;;;;;5095256;28;21656;-78
2022/04/02 02:20:15;;;;;;;12.75;3.63;;;;;;;;;;5066331;28;20044;-81
2022/04/02 02:22:41;;;;;;;4.60;3.47;;;;;;;;;;5099000;27;21929;-78
2022/04/02 02:25:08;;;;;;;6.90;3.22;;;;;;;;;;5085774;28;20071;-78
2022/04/02 02:27:35;;;;;;;5.15;2.85;;;;;;;;;;5081153;28;20059;-78
2022/04/02 02:30:01;;;;;;;7.65;3.65;;;;;;;;;;5116619;27;20040;-78
2022/04/02 02:32:28;;;;;;;6.82;3.20;;;;;;;;;;5073601;28;20101;-79
2022/04/02 02:37:39;;;;;;;5.35;2.95;;;;;;;;;;5070974;28;20059;-78
2022/04/02 02:40:06;;;;;;;7.85;3.28;;;;;;;;;;5086045;28;20043;-78
2022/04/02 02:42:32;;;;;;;5.95;3.00;;;;;;;;;;5068576;28;20809;-78
2022/04/02 02:44:58;;;;;;;6.38;2.53;;;;;;;;;;5072757;28;20055;-78
2022/04/02 02:47:24;;;;;;;8.00;3.60;;;;;;;;;;5067853;28;20467;-78
2022/04/02 02:49:50;;;;;;;9.05;3.20;;;;;;;;;;5083099;28;20155;-78
2022/04/02 02:52:16;;;;;;;7.10;3.22;;;;;;;;;;5097785;27;20487;-81
2022/04/02 02:54:42;;;;;;;9.65;3.30;;;;;;;;;;5086296;28;20047;-79
2022/04/02 02:57:08;;;;;;;6.82;3.30;;;;;;;;;;5084334;28;20478;-79
2022/04/02 02:59:35;;;;;;;6.10;3.20;;;;;;;;;;5090004;28;20473;-78
2022/04/02 03:02:01;;;;;;;6.60;3.53;;;;;;;;;;5081422;28;20087;-78
2022/04/02 03:04:27;;;;;;;7.38;3.72;;;;;;;;;;5084581;28;20116;-78
2022/04/02 03:06:54;;;;;;;6.50;3.47;;;;;;;;;;5096536;27;20044;-78
2022/04/02 03:09:20;;;;;;;7.28;3.42;;;;;;;;;;5098971;27;20055;-81
2022/04/02 03:11:46;;;;;;;8.73;3.72;;;;;;;;;;5109408;27;20047;-78
2022/04/02 03:14:12;;;;;;;5.43;3.22;;;;;;;;;;5082036;28;20063;-78
2022/04/02 03:16:38;;;;;;;5.68;3.33;;;;;;;;;;5100616;27;20040;-79
2022/04/02 03:19:06;;;;;;;6.20;3.38;;;;;;;;;;5069379;28;20104;-80
2022/04/02 03:21:32;;;;;;;8.77;3.55;;;;;;;;;;5052971;28;20538;-78
2022/04/02 03:23:59;;;;;;;5.90;2.88;;;;;;;;;;5111838;27;20048;-78
2022/04/02 03:26:26;;;;;;;7.93;2.85;;;;;;;;;;5069596;28;20090;-78
2022/04/02 03:28:52;;;;;;;5.13;3.15;;;;;;;;;;5083977;28;20055;-78
2022/04/02 03:31:18;;;;;;;6.72;2.85;;;;;;;;;;5084228;28;20048;-77
2022/04/02 03:33:44;;;;;;;6.22;3.00;;;;;;;;;;5083150;28;20072;-78
2022/04/02 03:36:11;;;;;;;4.63;3.17;;;;;;;;;;5083345;28;20044;-79
2022/04/02 03:38:40;;;;;;;6.18;3.10;;;;;;;;;;5099499;27;20119;-79
2022/04/02 03:41:06;;;;;;;7.68;2.50;;;;;;;;;;5086046;28;20060;-81
2022/04/02 03:43:32;;;;;;;5.00;2.10;;;;;;;;;;5079580;28;20059;-77
2022/04/02 03:47:08;;;;;;;10.07;3.05;;;;;;;;;;5072419;28;20417;-78
2022/04/02 03:48:45;;;;;;;7.75;2.35;;;;;;;;;;5083205;28;20067;-80
2022/04/02 03:51:11;;;;;;;5.53;2.00;;;;;;;;;;5071516;28;20048;-79
2022/04/02 03:53:37;;;;;;;5.10;1.58;;;;;;;;;;5084588;28;20048;-81
2022/04/02 03:56:05;;;;;;;3.05;1.67;;;;;;;;;;5081284;28;20047;-78
2022/04/02 03:58:31;;;;;;;2.83;1.30;;;;;;;;;;5086233;28;20052;-78
2022/04/02 04:00:58;;;;;;;5.47;1.13;;;;;;;;;;5051545;28;20083;-79
2022/04/02 04:03:24;;;;;;;4.38;1.48;;;;;;;;;;5112364;27;20052;-80
2022/04/02 04:05:50;;;;;;;5.50;1.98;;;;;;;;;;5084885;28;20077;-77
2022/04/02 04:08:16;;;;;;;3.47;1.75;;;;;;;;;;5110189;27;20050;-77
2022/04/02 04:10:42;;;;;;;3.65;1.67;;;;;;;;;;5067846;28;20044;-77
2022/04/02 04:13:08;;;;;;;4.18;1.20;;;;;;;;;;5080984;28;20033;-78
2022/04/02 04:15:34;;;;;;;4.25;1.10;;;;;;;;;;5085770;28;20053;-77
2022/04/02 04:18:00;;;;;;;2.45;1.25;;;;;;;;;;5068812;28;20471;-77
2022/04/02 04:20:27;;;;;;;3.75;1.67;;;;;;;;;;5073335;28;20044;-79
2022/04/02 04:22:53;;;;;;;2.22;1.20;;;;;;;;;;5115158;27;20059;-78
2022/04/02 04:25:22;;;;;;;2.80;1.30;;;;;;;;;;5064535;28;20062;-77
2022/04/02 04:27:48;;;;;;;2.55;1.85;;;;;;;;;;5067724;28;20051;-77
2022/04/02 04:30:14;;;;;;;5.03;1.90;;;;;;;;;;5068059;28;20040;-80
2022/04/02 04:32:40;;;;;;;4.68;1.30;;;;;;;;;;5115465;27;20051;-77
2022/04/02 04:35:07;;;;;;;2.40;1.30;;;;;;;;;;5085102;28;20078;-79
2022/04/02 04:37:36;;;;;;;4.28;1.20;;;;;;;;;;5060252;28;20055;-79
2022/04/02 04:40:04;;;;;;;4.05;1.33;;;;;;;;;;5083009;28;20036;-78
2022/04/02 04:42:31;;;;;;;3.05;1.75;;;;;;;;;;5067330;28;20044;-77
2022/04/02 04:44:57;;;;;;;7.18;2.00;;;;;;;;;;5069280;28;20096;-77
2022/04/02 04:47:23;;;;;;;5.65;2.50;;;;;;;;;;5085948;28;20059;-79
2022/04/02 04:49:49;;;;;;;3.08;1.63;;;;;;;;;;5065638;28;20047;-77
2022/04/02 04:52:15;;;;;;;6.43;1.52;;;;;;;;;;5069662;28;20055;-77
2022/04/02 04:54:42;;;;;;;4.22;1.38;;;;;;;;;;5061951;28;20052;-78
2022/04/02 04:57:08;;;;;;;5.95;1.45;;;;;;;;;;5068835;28;20123;-81
2022/04/02 04:59:34;;;;;;;7.68;1.77;;;;;;;;;;5068846;28;20035;-78
2022/04/02 05:02:00;;;;;;;3.78;1.50;;;;;;;;;;5098088;27;20554;-78
2022/04/02 05:04:26;;;;;;;3.85;1.38;;;;;;;;;;5055826;28;21256;-81
2022/04/02 05:06:53;;;;;;;6.18;1.90;;;;;;;;;;5084904;28;20482;-77
2022/04/02 05:09:19;;;;;;;8.10;1.90;;;;;;;;;;5068395;28;20051;-77
2022/04/02 05:11:45;;;;;;;3.53;1.70;;;;;;;;;;5068694;28;20399;-77
2022/04/02 05:14:13;;;;;;;5.20;1.33;;;;;;;;;;5096964;28;20052;-77
2022/04/02 05:16:39;;;;;;;5.93;1.58;;;;;;;;;;5079872;28;20479;-78
2022/04/02 05:19:07;;;;;;;6.38;2.28;;;;;;;;;;5078849;28;20079;-78
2022/04/02 05:21:33;;;;;;;2.78;1.85;;;;;;;;;;5079785;28;20062;-78
2022/04/02 05:23:59;;;;;;;4.75;2.05;;;;;;;;;;5061084;28;20068;-77
2022/04/02 05:26:25;;;;;;;4.55;1.75;;;;;;;;;;5074918;28;20040;-78
2022/04/02 05:28:51;;;;;;;3.67;1.83;;;;;;;;;;5096952;28;20066;-80
2022/04/02 05:31:17;;;;;;;2.55;1.48;;;;;;;;;;5089991;28;20040;-77
2022/04/02 05:33:43;;;;;;;5.82;1.77;;;;;;;;;;5084053;28;20745;-77
2022/04/02 05:36:09;;;;;;;2.60;1.40;;;;;;;;;;5068019;28;20105;-78
2022/04/02 05:38:35;;;;;;;9.15;3.22;;;;;;;;;;5088091;28;20036;-79
2022/04/02 05:41:01;;;;;;;6.95;1.60;;;;;;;;;;5084514;28;20096;-78
2022/04/02 05:43:28;;;;;;;5.13;2.05;;;;;;;;;;5070731;28;20032;-77
2022/04/02 05:45:54;;;;;;;3.92;1.52;;;;;;;;;;5078148;28;20039;-78
2022/04/02 05:48:21;;;;;;;4.88;2.00;;;;;;;;;;5080845;28;20415;-79
2022/04/02 05:50:47;;;;;;;5.38;1.90;;;;;;;;;;5063835;28;20086;-79
2022/04/02 05:53:13;;;;;;;4.40;1.60;;;;;;;;;;5066610;28;20052;-78
2022/04/02 05:55:39;;;;;;;6.90;3.28;;;;;;;;;;5085517;28;20048;-81
2022/04/02 05:58:06;;;;;;;6.43;2.25;;;;;;;;;;5103532;28;20044;-81
2022/04/02 06:00:32;;;;;;;3.47;1.80;;;;;;;;;;5085070;28;20494;-77
2022/04/02 06:02:58;;;;;;;5.38;2.08;;;;;;;;;;5068225;28;20118;-76
2022/04/02 06:05:25;;;;;;;3.53;1.85;;;;;;;;;;5086119;28;20045;-77
2022/04/02 06:07:51;;;;;;;4.60;1.83;;;;;;;;;;5069470;28;20513;-77
2022/04/02 06:10:17;;;;;;;6.50;1.80;;;;;;;;;;5073347;28;20056;-76
2022/04/02 06:12:43;;;;;;;4.70;1.83;;;;;;;;;;5087232;28;20055;-76
2022/04/02 06:15:09;;;;;;;3.95;1.55;;;;;;;;;;5100998;27;20535;-75
2022/04/02 06:17:36;;;;;;;4.30;1.65;;;;;;;;;;5054640;28;20755;-75
2022/04/02 06:20:02;;;;;;;5.00;1.80;;;;;;;;;;5073100;28;20052;-78
2022/04/02 06:22:28;;;;;;;3.42;1.77;;;;;;;;;;5085904;28;20399;-77
2022/04/02 06:24:55;;;;;;;8.18;2.05;;;;;;;;;;5080902;28;20044;-78
2022/04/02 06:27:21;;;;;;;4.90;1.95;;;;;;;;;;5087259;28;20049;-79
2022/04/02 06:29:48;;;;;;;8.90;2.05;;;;;;;;;;5080010;28;20040;-77
2022/04/02 06:32:14;;;;;;;2.58;1.67;;;;;;;;;;5085710;28;20051;-75
2022/04/02 06:34:40;;;;;;;3.35;1.77;;;;;;;;;;5087086;28;20039;-78
2022/04/02 06:37:07;;;;;;;6.75;1.90;;;;;;;;;;5079766;28;20039;-76
2022/04/02 06:39:33;;;;;;;3.65;2.00;;;;;;;;;;5079717;28;20535;-75
2022/04/02 06:41:59;;;;;;;3.92;1.98;;;;;;;;;;5081862;28;20087;-76
2022/04/02 06:44:25;;;;;;;5.80;2.17;;;;;;;;;;5086271;28;20036;-75
2022/04/02 06:46:51;;;;;;;5.10;2.40;;;;;;;;;;5081066;28;20399;-75
2022/04/02 06:49:17;;;;;;;7.38;2.20;;;;;;;;;;5067796;28;20036;-73
2022/04/02 06:51:43;;;;;;;6.90;2.40;;;;;;;;;;5067219;28;20459;-77
2022/04/02 06:54:09;;;;;;;6.00;2.10;;;;;;;;;;5100238;28;20045;-76
2022/04/02 06:56:35;;;;;;;4.22;2.35;;;;;;;;;;5090151;28;20043;-77
2022/04/02 06:59:02;;;;;;;5.43;2.33;;;;;;;;;;5119052;27;20075;-75
2022/04/02 07:01:28;;;;;;;4.20;2.38;;;;;;;;;;5075269;28;20060;-75
2022/04/02 07:03:54;;;;;;;5.47;2.80;;;;;;;;;;5079514;28;20051;-75
2022/04/02 07:06:20;;;;;;;5.20;2.22;;;;;;;;;;5095300;28;20116;-75
2022/04/02 07:08:46;;;;;;;7.65;2.45;;;;;;;;;;5079906;28;20123;-74
2022/04/02 07:11:12;;;;;;;4.85;2.15;;;;;;;;;;5126096;27;20059;-75
2022/04/02 07:13:38;;;;;;;5.30;2.30;;;;;;;;;;5078223;28;20047;-80
2022/04/02 07:16:04;;;;;;;8.18;2.40;;;;;;;;;;5078635;28;20055;-75
2022/04/02 07:18:31;;;;;;;4.50;2.13;;;;;;;;;;5079768;28;20055;-76
2022/04/02 07:20:59;;;;;;;4.68;2.15;;;;;;;;;;5080085;28;20048;-75
2022/04/02 07:23:25;;;;;;;5.80;1.58;;;;;;;;;;5091504;28;20605;-75
2022/04/02 07:25:54;;;;;;;5.28;2.30;;;;;;;;;;5086531;28;20040;-75
2022/04/02 07:28:23;;;;;;;4.75;2.10;;;;;;;;;;5081448;28;20055;-75
2022/04/02 07:30:50;;;;;;;6.55;2.50;;;;;;;;;;5073186;28;20058;-74
2022/04/02 07:33:16;;;;;;;4.85;2.38;;;;;;;;;;5058624;28;20051;-75
2022/04/02 07:35:54;;;;;;;6.57;2.33;;;;;;;;;;5077383;28;20044;-74
2022/04/02 07:38:32;;;;;;;7.55;1.90;;;;;;;;;;5084632;28;20058;-75
2022/04/02 07:40:58;;;;;;;2.83;1.70;;;;;;;;;;5085989;28;20048;-75
2022/04/02 07:43:30;;;;;;;7.75;2.50;;;;;;;;;;5098881;28;20498;-75
2022/04/02 07:46:04;;;;;;;5.65;2.95;;;;;;;;;;5112391;27;20052;-75
2022/04/02 07:48:30;;;;;;;;;;;;;;;;;;5092425;28;20044;-75
2022/04/02 07:50:56;;;;;;;2.70;1.50;;;;;;;;;;5086413;28;19927;-75
2022/04/02 07:53:23;;;;;;;5.57;2.60;;;;;;;;;;5095946;28;20052;-75
2022/04/02 07:55:51;;;;;;;3.08;1.60;;;;;;;;;;5081980;28;20051;-75
2022/04/02 07:58:20;;;;;;;4.63;1.55;;;;;;;;;;5086096;28;20039;-75
2022/04/02 08:00:49;;;;;;;4.68;1.83;;;;;;;;;;5093122;28;20047;-75
2022/04/02 08:03:16;;;;;;;4.95;1.77;;;;;;;;;;5104643;28;20056;-75
2022/04/02 08:05:42;;;;;;;6.50;2.17;;;;;;;;;;5120354;27;20421;-75
2022/04/02 08:08:08;;;;;;;2.38;1.60;;;;;;;;;;5079308;28;20052;-75
2022/04/02 08:10:35;;;;;;;2.90;1.45;;;;;;;;;;5076857;28;20055;-75
2022/04/02 08:13:02;;;;;;;5.15;1.40;;;;;;;;;;5074075;28;20040;-75
2022/04/02 08:15:28;;;;;;;3.13;1.30;;;;;;;;;;5092160;28;20036;-75
2022/04/02 08:17:55;;;;;;;3.92;1.60;;;;;;;;;;5092314;28;20121;-75
2022/04/02 08:20:25;;;;;;;3.10;1.52;;;;;;;;;;5058696;28;20037;-77
2022/04/02 08:22:51;;;;;;;2.95;1.23;;;;;;;;;;5082213;28;20043;-74
2022/04/02 08:25:18;;;;;;;3.33;1.48;;;;;;;;;;5086098;28;20119;-74
2022/04/02 08:27:47;;;;;;;4.10;1.77;;;;;;;;;;5093881;28;20037;-74
2022/04/02 08:30:19;;;;;;;2.65;1.20;;;;;;;;;;5088892;28;20044;-73
2022/04/02 08:32:45;;;;;;;;;;;;;;;;;;5066737;28;20071;-73
2022/04/02 08:35:11;;;;;;;;;;;;;;;;;;5074990;28;20200;-74
2022/04/02 08:37:37;;;;;;;;;;;;;;;;;;5107692;27;20405;-76
2022/04/02 08:40:03;;;;;;;;;;;;;;;;;;5074279;28;19927;-77
2022/04/02 08:42:29;;;;;;;;;;;;;;;;;;5072027;28;19924;-77
2022/04/02 08:44:55;;;;;;;;;;;;;;;;;;5072137;28;20007;-75
2022/04/02 08:47:21;;;;;;;;;;;;;;;;;;5097320;28;19927;-76
2022/04/02 08:49:47;;;;;;;;;;;;;;;;;;5064947;28;19920;-74
2022/04/02 08:52:13;;;;;;;;;;;;;;;;;;5115652;27;19923;-76
2022/04/02 08:54:39;;;;;;;;;;;;;;;;;;5100989;28;19928;-77
2022/04/02 08:57:05;;;;;;;;;;;;;;;;;;5092691;28;19920;-76
2022/04/02 08:59:31;;;;;;;;;;;;;;;;;;5079247;28;19947;-75
2022/04/02 09:01:57;;;;;;;;;;;;;;;;;;5108119;27;19942;-75
2022/04/02 09:04:23;;;;;;;;;;;;;;;;;;5120851;27;19920;-75
2022/04/02 09:06:49;;;;;;;;;;;;;;;;;;5086432;28;19973;-76
2022/04/02 09:09:15;;;;;;;;;;;;;;;;;;5110091;27;20007;-76
2022/04/02 09:11:41;;;;;;;;;;;;;;;;;;5079897;28;20011;-77
2022/04/02 09:14:11;;;;;;;3.88;1.23;;;;;;;;;;5088907;28;19943;-74
2022/04/02 09:16:43;;;;;;;2.85;1.63;;;;;;;;;;5102252;28;20040;-75
2022/04/02 09:19:14;;;;;;;3.92;1.13;;;;;;;;;;5087823;28;20100;-74
2022/04/02 09:21:58;;;;;;;4.20;1.67;;;;;;;;;;5082977;28;20110;-76
2022/04/02 09:24:28;;;;;;;3.65;1.05;;;;;;;;;;5060233;28;20048;-75
2022/04/02 09:26:54;;;;;;;4.15;1.38;;;;;;;;;;5075606;28;20484;-77
2022/04/02 09:29:26;;;;;;;3.15;1.10;;;;;;;;;;5086528;28;20048;-75
2022/04/02 09:32:11;;;;;;;5.47;1.17;;;;;;;;;;5085413;28;20046;-78
2022/04/02 09:34:46;;;;;;;3.95;1.23;;;;;;;;;;5099064;28;20048;-75
2022/04/02 09:37:31;;;;;;;5.38;1.23;;;;;;;;;;5069872;28;20088;-77
2022/04/02 09:40:04;;;;;;;1.33;0.85;;;;;;;;;;5089354;28;20042;-76
2022/04/02 09:42:30;;;;;;;4.72;1.20;;;;;;;;;;5122689;27;20047;-76
2022/04/02 09:45:10;;;;;;;5.50;1.40;;;;;;;;;;5071860;28;20118;-75
2022/04/02 09:47:48;;;;;;;2.63;1.10;;;;;;;;;;5085505;28;20364;-75
2022/04/02 09:50:16;;;;;;;4.05;1.08;;;;;;;;;;5084434;28;20071;-74
2022/04/02 09:52:44;;;;;;;5.57;1.30;;;;;;;;;;5069238;28;20047;-75
2022/04/02 09:55:15;;;;;;;2.35;0.73;;;;;;;;;;5088443;28;20040;-76
2022/04/02 09:57:50;;;;;;;1.45;0.88;;;;;;;;;;5057011;28;20047;-75
2022/04/02 10:00:16;;;;;;;4.03;1.10;;;;;;;;;;5064660;28;20040;-74
2022/04/02 10:02:59;;;;;;;3.78;1.17;;;;;;;;;;5069507;28;20060;-78
2022/04/02 10:05:41;;;;;;;4.38;1.55;;;;;;;;;;5086192;28;20094;-75
2022/04/02 10:08:11;;;;;;;4.25;0.90;;;;;;;;;;5091304;28;20075;-74
2022/04/02 10:10:38;;;;;;;3.75;1.00;;;;;;;;;;5072098;28;20051;-74
2022/04/02 10:13:04;;;;;;;4.22;0.88;;;;;;;;;;5086835;28;20135;-76
2022/04/02 10:15:31;;;;;;;3.22;1.60;;;;;;;;;;5112108;28;20117;-73
2022/04/02 10:18:02;;;;;;;3.45;1.15;;;;;;;;;;5092630;28;20131;-73
2022/04/02 10:20:31;;;;;;;3.42;1.10;;;;;;;;;;5108044;28;20181;-73
2022/04/02 10:23:05;;;;;;;12.35;1.52;;;;;;;;;;5072383;28;20055;-73
2022/04/02 10:25:33;;;;;;;3.63;1.05;;;;;;;;;;5057196;28;20056;-74
2022/04/02 10:28:02;;;;;;;2.72;1.00;;;;;;;;;;5092901;28;20055;-75
2022/04/02 10:30:29;;;;;;;2.33;0.90;;;;;;;;;;5079572;28;20052;-73
2022/04/02 10:33:26;;;;;;;5.00;0.85;;;;;;;;;;5071605;28;20126;-73
2022/04/02 10:35:47;;;;;;;8.18;1.85;;;;;;;;;;5081253;28;20097;-73
2022/04/02 10:38:17;;;;;;;5.65;1.15;;;;;;;;;;5089553;28;20127;-73
2022/04/02 10:40:46;;;;;;;4.47;1.00;;;;;;;;;;5090442;28;20055;-77
2022/04/02 10:43:23;;;;;;;2.67;1.00;;;;;;;;;;5074012;28;20052;-74
2022/04/02 10:45:50;;;;;;;2.42;1.00;;;;;;;;;;5083800;28;20067;-78
2022/04/02 10:48:18;;;;;;;2.75;0.80;;;;;;;;;;5098706;28;20225;-74
2022/04/02 10:50:45;;;;;;;2.47;1.10;;;;;;;;;;5082661;28;20040;-74
2022/04/02 10:53:12;;;;;;;4.28;1.38;;;;;;;;;;5118871;27;20075;-73
2022/04/02 10:55:46;;;;;;;3.05;0.90;;;;;;;;;;5083499;28;20071;-79
2022/04/02 10:58:13;;;;;;;2.00;1.00;;;;;;;;;;5086459;28;20355;-74
2022/04/02 11:00:44;;;;;;;2.47;1.10;;;;;;;;;;5083713;28;20432;-76
2022/04/02 11:03:16;;;;;;;2.30;0.98;;;;;;;;;;5083629;28;20058;-79
2022/04/02 11:05:42;;;;;;;3.20;0.90;;;;;;;;;;5087152;28;20054;-78
2022/04/02 11:08:12;;;;;;;2.60;0.90;;;;;;;;;;5068441;28;20288;-79
2022/04/02 11:10:38;;;;;;;4.28;1.02;;;;;;;;;;5107086;28;20054;-76
2022/04/02 11:13:06;;;;;;;1.52;0.75;;;;;;;;;;5086193;28;20043;-75
2022/04/02 11:15:40;;;;;;;1.88;0.90;;;;;;;;;;5082061;28;20047;-76
2022/04/02 11:18:15;;;;;;;3.25;1.17;;;;;;;;;;5086023;28;20378;-78
2022/04/02 11:20:43;;;;;;;5.47;1.10;;;;;;;;;;5082497;28;20028;-80
2022/04/02 11:23:13;;;;;;;3.85;1.27;;;;;;;;;;5086600;28;20095;-81
2022/04/02 11:25:44;;;;;;;3.45;0.98;;;;;;;;;;5082203;28;20068;-82
2022/04/02 11:28:18;;;;;;;2.67;0.82;;;;;;;;;;5086117;28;20051;-81
2022/04/02 11:30:44;;;;;;;5.63;1.40;;;;;;;;;;5067407;28;20032;-79
2022/04/02 11:33:13;;;;;;;2.75;1.20;;;;;;;;;;5084746;28;20079;-77
2022/04/02 11:35:44;;;;;;;3.63;0.95;;;;;;;;;;5069579;28;20052;-85
2022/04/02 11:38:14;;;;;;;5.03;1.10;;;;;;;;;;5088034;28;20592;-89
2022/04/02 11:40:48;;;;;;;5.28;1.10;;;;;;;;;;5082224;28;20438;-81
2022/04/02 11:43:14;;;;;;;2.72;1.20;;;;;;;;;;5082011;28;20040;-78
2022/04/02 11:45:41;;;;;;;4.82;1.10;;;;;;;;;;5081843;28;20117;-81
2022/04/02 11:48:11;;;;;;;3.45;0.90;;;;;;;;;;5093105;28;20051;-78
2022/04/02 11:50:43;;;;;;;2.97;0.80;;;;;;;;;;5088888;28;20070;-79
2022/04/02 11:53:09;;;;;;;3.97;0.98;;;;;;;;;;5113052;27;20084;-80
2022/04/02 11:55:36;;;;;;;4.35;1.10;;;;;;;;;;5079490;28;20373;-79
2022/04/02 11:58:07;;;;;;;1.95;0.90;;;;;;;;;;5106890;27;20229;-80
2022/04/02 12:00:35;;;;;;;3.00;0.85;;;;;;;;;;5116676;27;20079;-80
2022/04/02 12:03:01;;;;;;;4.15;1.00;;;;;;;;;;5071375;28;20524;-79
2022/04/02 12:05:35;;;;;;;3.92;1.33;;;;;;;;;;5101887;28;20048;-87
2022/04/02 12:08:02;;;;;;;2.80;1.02;;;;;;;;;;5087821;28;20036;-79
2022/04/02 12:10:28;;;;;;;4.85;1.10;;;;;;;;;;5073469;28;20052;-79
2022/04/02 12:12:55;;;;;;;7.18;1.10;;;;;;;;;;5112902;27;20071;-79
2022/04/02 12:15:22;;;;;;;3.20;1.02;;;;;;;;;;5061073;28;20129;-79
2022/04/02 12:17:50;;;;;;;2.45;1.20;;;;;;;;;;5072766;28;20490;-79
2022/04/02 12:20:19;;;;;;;3.42;0.82;;;;;;;;;;5067417;28;20394;-79
2022/04/02 12:22:46;;;;;;;1.85;1.00;;;;;;;;;;5077933;28;20036;-78
2022/04/02 12:25:18;;;;;;;2.95;0.80;;;;;;;;;;5072817;28;20056;-79
2022/04/02 12:27:49;;;;;;;2.05;1.00;;;;;;;;;;5075383;28;20039;-79
2022/04/02 12:30:20;;;;;;;4.63;1.02;;;;;;;;;;5070936;28;20055;-77
2022/04/02 12:32:46;;;;;;;2.08;0.90;;;;;;;;;;5059587;28;20060;-79
2022/04/02 12:35:13;;;;;;;3.47;1.10;;;;;;;;;;5097748;28;20052;-80
2022/04/02 12:37:43;;;;;;;2.42;0.80;;;;;;;;;;5086247;28;20051;-79
2022/04/02 12:40:15;;;;;;;4.05;0.90;;;;;;;;;;5102647;27;20124;-80
2022/04/02 12:42:42;;;;;;;5.38;1.33;;;;;;;;;;5072841;28;20532;-79
2022/04/02 12:45:13;;;;;;;6.65;1.05;;;;;;;;;;5079116;28;20086;-82
2022/04/02 12:47:40;;;;;;;4.93;0.90;;;;;;;;;;5094048;27;20047;-80
2022/04/02 12:50:10;;;;;;;2.17;0.88;;;;;;;;;;5086986;28;20059;-83
2022/04/02 12:52:43;;;;;;;2.13;0.70;;;;;;;;;;5077708;28;20106;-82
2022/04/02 12:55:16;;;;;;;4.97;1.00;;;;;;;;;;5092391;28;20051;-82
2022/04/02 12:57:45;;;;;;;3.33;1.30;;;;;;;;;;5093566;28;20052;-78
2022/04/02 13:00:24;;;;;;;6.63;1.00;;;;;;;;;;5088421;28;20321;-82
2022/04/02 13:02:55;;;;;;;2.90;1.20;;;;;;;;;;5087182;28;20051;-80
2022/04/02 13:05:24;;;;;;;2.38;0.88;;;;;;;;;;5114123;27;20089;-81
2022/04/02 13:08:02;;;;;;;2.17;0.65;;;;;;;;;;5080615;28;20051;-79
2022/04/02 13:10:29;;;;;;;4.57;1.40;;;;;;;;;;5088895;28;20112;-80
2022/04/02 13:12:59;;;;;;;2.17;0.93;;;;;;;;;;5073855;28;20109;-81
2022/04/02 13:15:27;;;;;;;2.55;0.85;;;;;;;;;;5056181;28;20466;-80
2022/04/02 13:20:43;;;;;;;2.25;0.95;;;;;;;;;;5073586;28;20106;-81
2022/04/02 13:23:21;;;;;;;4.78;1.30;;;;;;;;;;5072252;28;20475;-85
2022/04/02 13:25:50;;;;;;;2.08;1.45;;;;;;;;;;5083681;28;20060;-82
2022/04/02 13:28:23;;;;;;;2.28;0.60;;;;;;;;;;5088894;28;20047;-83
2022/04/02 13:30:51;;;;;;;2.67;0.82;;;;;;;;;;5068545;28;20063;-83
2022/04/02 13:33:17;;;;;;;2.40;1.00;;;;;;;;;;5104319;28;20084;-83
2022/04/02 13:35:51;;;;;;;7.65;1.25;;;;;;;;;;5099665;27;20039;-81
2022/04/02 13:38:24;;;;;;;2.95;1.00;;;;;;;;;;5082223;28;20048;-82
2022/04/02 13:40:52;;;;;;;6.18;1.30;;;;;;;;;;5093411;28;20052;-84
2022/04/02 13:43:45;;;;;;;2.30;0.85;;;;;;;;;;5088178;28;20502;-82
2022/04/02 13:46:12;;;;;;;3.50;1.20;;;;;;;;;;5078542;28;20075;-82
2022/04/02 13:48:57;;;;;;;3.67;0.90;;;;;;;;;;5089520;28;20559;-81
2022/04/02 13:51:33;;;;;;;2.22;0.98;;;;;;;;;;5081895;28;20074;-81
2022/04/02 13:54:04;;;;;;;1.92;0.80;;;;;;;;;;5080765;28;20048;-79
2022/04/02 13:56:34;;;;;;;3.50;1.20;;;;;;;;;;5110122;28;20043;-80
2022/04/02 13:59:01;;;;;;;3.38;0.95;;;;;;;;;;5082210;28;20395;-78
2022/04/02 14:01:30;;;;;;;4.93;0.95;;;;;;;;;;5084352;28;20041;-81
2022/04/02 14:04:18;;;;;;;3.42;1.00;;;;;;;;;;5068428;28;20060;-83
2022/04/02 14:06:44;;;;;;;3.38;1.20;;;;;;;;;;5083431;28;20044;-81
2022/04/02 14:09:11;;;;;;;6.22;1.40;;;;;;;;;;5060085;28;20185;-81
2022/04/02 14:11:39;;;;;;;13.85;1.35;;;;;;;;;;5079720;28;20063;-79
2022/04/02 14:14:05;;;;;;;4.63;1.45;;;;;;;;;;5069156;28;20490;-80
2022/04/02 14:16:33;;;;;;;5.22;1.27;;;;;;;;;;5091893;28;20048;-80
2022/04/02 14:19:06;;;;;;;9.15;1.30;;;;;;;;;;5075123;28;20440;-81
2022/04/02 14:21:34;;;;;;;6.93;1.45;;;;;;;;;;5095914;28;20039;-81
2022/04/02 14:24:07;;;;;;;4.00;1.98;;;;;;;;;;5092417;28;20040;-81
2022/04/02 14:26:46;;;;;;;5.05;0.85;;;;;;;;;;5114623;27;20056;-82
2022/04/02 14:29:15;;;;;;;3.30;1.23;;;;;;;;;;5115763;27;20068;-80
2022/04/02 14:31:56;;;;;;;8.68;1.00;;;;;;;;;;5080882;28;20040;-81
2022/04/02 14:34:34;;;;;;;3.08;1.00;;;;;;;;;;5105286;28;20074;-81
2022/04/02 14:37:37;;;;;;;3.13;0.88;;;;;;;;;;5094887;28;20071;-80
2022/04/02 14:40:13;;;;;;;2.92;1.25;;;;;;;;;;5061969;28;20617;-80
2022/04/02 14:42:51;;;;;;;2.42;1.15;;;;;;;;;;5079290;28;20052;-82
2022/04/02 14:45:40;;;;;;;10.15;1.10;;;;;;;;;;5076583;28;20094;-84
2022/04/02 14:48:25;;;;;;;2.83;0.85;;;;;;;;;;5059122;28;20143;-87
2022/04/02 14:50:51;;;;;;;2.35;0.93;;;;;;;;;;5074318;28;20127;-84
2022/04/02 14:53:36;;;;;;;2.28;0.90;;;;;;;;;;5077375;28;20044;-84
2022/04/02 14:56:17;;;;;;;3.38;0.98;;;;;;;;;;5094436;28;20052;-88
2022/04/02 14:59:02;;;;;;;3.63;1.00;;;;;;;;;;5077810;28;20070;-88
2022/04/02 15:01:39;;;;;;;5.03;1.10;;;;;;;;;;5095395;28;20040;-88